sensor_id;sensor_type;location;lat;lon;timestamp;P1;durP1;ratioP1;P2;durP2;ratioP2
72201;SDS011;60105;54.956;73.412;2023-01-15T00:02:24;6.50;;;3.85;;
72201;SDS011;60105;54.956;73.412;2023-01-15T00:05:01;5.68;;;4.07;;
72201;SDS011;60105;54.956;73.412;2023-01-15T00:07:29;5.10;;;3.38;;
72201;SDS011;60105;54.956;73.412;2023-01-15T00:09:56;7.30;;;4.03;;
72201;SDS011;60105;54.956;73.412;2023-01-15T00:12:22;8.40;;;3.53;;
72201;SDS011;60105;54.956;73.412;2023-01-15T00:14:58;5.25;;;3.33;;
72201;SDS011;60105;54.956;73.412;2023-01-15T00:17:25;6.65;;;3.70;;
72201;SDS011;60105;54.956;73.412;2023-01-15T00:19:51;5.95;;;3.47;;
72201;SDS011;60105;54.956;73.412;2023-01-15T00:22:21;8.57;;;4.00;;
72201;SDS011;60105;54.956;73.412;2023-01-15T00:24:47;5.15;;;3.47;;
72201;SDS011;60105;54.956;73.412;2023-01-15T00:27:34;9.23;;;4.28;;
72201;SDS011;60105;54.956;73.412;2023-01-15T00:30:14;7.85;;;3.80;;
72201;SDS011;60105;54.956;73.412;2023-01-15T00:32:47;5.55;;;3.92;;
72201;SDS011;60105;54.956;73.412;2023-01-15T00:35:15;6.90;;;3.50;;
72201;SDS011;60105;54.956;73.412;2023-01-15T00:37:43;8.90;;;5.00;;
72201;SDS011;60105;54.956;73.412;2023-01-15T00:40:10;5.25;;;3.97;;
72201;SDS011;60105;54.956;73.412;2023-01-15T00:42:43;6.25;;;4.10;;
72201;SDS011;60105;54.956;73.412;2023-01-15T00:45:09;7.85;;;4.38;;
72201;SDS011;60105;54.956;73.412;2023-01-15T00:47:40;6.60;;;4.27;;
72201;SDS011;60105;54.956;73.412;2023-01-15T00:50:09;8.70;;;4.15;;
72201;SDS011;60105;54.956;73.412;2023-01-15T00:52:47;9.25;;;4.35;;
72201;SDS011;60105;54.956;73.412;2023-01-15T00:55:13;9.57;;;4.13;;
72201;SDS011;60105;54.956;73.412;2023-01-15T00:57:40;7.15;;;4.10;;
72201;SDS011;60105;54.956;73.412;2023-01-15T01:00:11;9.10;;;4.43;;
72201;SDS011;60105;54.956;73.412;2023-01-15T01:02:38;5.43;;;3.95;;
72201;SDS011;60105;54.956;73.412;2023-01-15T01:05:06;7.28;;;4.18;;
72201;SDS011;60105;54.956;73.412;2023-01-15T01:07:33;8.05;;;4.65;;
72201;SDS011;60105;54.956;73.412;2023-01-15T01:10:09;8.85;;;4.93;;
72201;SDS011;60105;54.956;73.412;2023-01-15T01:12:40;8.00;;;4.30;;
72201;SDS011;60105;54.956;73.412;2023-01-15T01:15:06;7.45;;;5.13;;
72201;SDS011;60105;54.956;73.412;2023-01-15T01:17:36;6.63;;;4.60;;
72201;SDS011;60105;54.956;73.412;2023-01-15T01:20:03;11.63;;;5.38;;
72201;SDS011;60105;54.956;73.412;2023-01-15T01:22:30;7.80;;;5.13;;
72201;SDS011;60105;54.956;73.412;2023-01-15T01:25:00;10.10;;;4.30;;
72201;SDS011;60105;54.956;73.412;2023-01-15T01:27:28;10.70;;;5.40;;
72201;SDS011;60105;54.956;73.412;2023-01-15T01:30:05;8.05;;;4.25;;
72201;SDS011;60105;54.956;73.412;2023-01-15T01:32:32;11.45;;;5.35;;
72201;SDS011;60105;54.956;73.412;2023-01-15T01:34:58;8.07;;;4.75;;
72201;SDS011;60105;54.956;73.412;2023-01-15T01:37:24;7.43;;;5.03;;
72201;SDS011;60105;54.956;73.412;2023-01-15T01:39:55;7.63;;;5.10;;
72201;SDS011;60105;54.956;73.412;2023-01-15T01:42:31;10.45;;;5.70;;
72201;SDS011;60105;54.956;73.412;2023-01-15T01:45:02;7.70;;;4.53;;
72201;SDS011;60105;54.956;73.412;2023-01-15T01:47:42;8.10;;;4.53;;
72201;SDS011;60105;54.956;73.412;2023-01-15T01:50:20;11.60;;;4.80;;
72201;SDS011;60105;54.956;73.412;2023-01-15T01:52:53;8.75;;;4.90;;
72201;SDS011;60105;54.956;73.412;2023-01-15T01:55:22;7.15;;;5.00;;
72201;SDS011;60105;54.956;73.412;2023-01-15T01:57:53;10.25;;;4.68;;
72201;SDS011;60105;54.956;73.412;2023-01-15T02:00:23;9.88;;;3.83;;
72201;SDS011;60105;54.956;73.412;2023-01-15T02:02:56;6.30;;;4.10;;
72201;SDS011;60105;54.956;73.412;2023-01-15T02:05:32;6.28;;;4.50;;
72201;SDS011;60105;54.956;73.412;2023-01-15T02:08:02;7.90;;;4.72;;
72201;SDS011;60105;54.956;73.412;2023-01-15T02:10:30;4.82;;;4.00;;
72201;SDS011;60105;54.956;73.412;2023-01-15T02:15:42;7.10;;;4.33;;
72201;SDS011;60105;54.956;73.412;2023-01-15T02:18:21;5.65;;;3.97;;
72201;SDS011;60105;54.956;73.412;2023-01-15T02:20:56;7.95;;;3.97;;
72201;SDS011;60105;54.956;73.412;2023-01-15T02:29:22;5.57;;;3.80;;
72201;SDS011;60105;54.956;73.412;2023-01-15T02:32:09;5.72;;;3.53;;
72201;SDS011;60105;54.956;73.412;2023-01-15T02:34:52;5.25;;;3.78;;
72201;SDS011;60105;54.956;73.412;2023-01-15T02:37:23;6.75;;;3.72;;
72201;SDS011;60105;54.956;73.412;2023-01-15T02:39:53;7.97;;;3.80;;
72201;SDS011;60105;54.956;73.412;2023-01-15T02:42:34;6.90;;;3.37;;
72201;SDS011;60105;54.956;73.412;2023-01-15T02:45:06;6.07;;;3.88;;
72201;SDS011;60105;54.956;73.412;2023-01-15T02:47:45;6.60;;;3.45;;
72201;SDS011;60105;54.956;73.412;2023-01-15T02:50:13;5.65;;;4.00;;
72201;SDS011;60105;54.956;73.412;2023-01-15T02:52:48;6.05;;;3.97;;
72201;SDS011;60105;54.956;73.412;2023-01-15T02:55:27;8.20;;;4.43;;
72201;SDS011;60105;54.956;73.412;2023-01-15T02:58:06;9.93;;;5.13;;
72201;SDS011;60105;54.956;73.412;2023-01-15T03:00:46;6.20;;;3.20;;
72201;SDS011;60105;54.956;73.412;2023-01-15T03:08:22;6.43;;;4.30;;
72201;SDS011;60105;54.956;73.412;2023-01-15T03:13:49;7.22;;;4.38;;
72201;SDS011;60105;54.956;73.412;2023-01-15T03:16:34;7.15;;;4.38;;
72201;SDS011;60105;54.956;73.412;2023-01-15T03:19:26;6.88;;;4.38;;
72201;SDS011;60105;54.956;73.412;2023-01-15T03:24:53;5.13;;;4.35;;
72201;SDS011;60105;54.956;73.412;2023-01-15T03:27:27;6.90;;;4.70;;
72201;SDS011;60105;54.956;73.412;2023-01-15T03:30:03;7.07;;;4.32;;
72201;SDS011;60105;54.956;73.412;2023-01-15T03:32:33;7.10;;;4.65;;
72201;SDS011;60105;54.956;73.412;2023-01-15T03:35:03;7.53;;;4.07;;
72201;SDS011;60105;54.956;73.412;2023-01-15T03:37:31;8.68;;;4.70;;
72201;SDS011;60105;54.956;73.412;2023-01-15T03:39:57;8.05;;;5.35;;
72201;SDS011;60105;54.956;73.412;2023-01-15T03:53:14;8.45;;;5.15;;
72201;SDS011;60105;54.956;73.412;2023-01-15T03:58:41;6.25;;;4.57;;
72201;SDS011;60105;54.956;73.412;2023-01-15T04:01:12;6.30;;;4.40;;
72201;SDS011;60105;54.956;73.412;2023-01-15T04:03:43;7.45;;;4.68;;
72201;SDS011;60105;54.956;73.412;2023-01-15T04:06:16;10.95;;;5.28;;
72201;SDS011;60105;54.956;73.412;2023-01-15T04:08:43;7.32;;;4.80;;
72201;SDS011;60105;54.956;73.412;2023-01-15T04:11:12;8.13;;;5.72;;
72201;SDS011;60105;54.956;73.412;2023-01-15T04:13:50;7.30;;;4.73;;
72201;SDS011;60105;54.956;73.412;2023-01-15T04:16:36;8.77;;;4.97;;
72201;SDS011;60105;54.956;73.412;2023-01-15T04:19:03;8.25;;;5.00;;
72201;SDS011;60105;54.956;73.412;2023-01-15T04:21:32;11.10;;;4.90;;
72201;SDS011;60105;54.956;73.412;2023-01-15T04:23:59;7.82;;;6.07;;
72201;SDS011;60105;54.956;73.412;2023-01-15T04:26:25;15.30;;;5.37;;
72201;SDS011;60105;54.956;73.412;2023-01-15T04:28:51;18.27;;;4.97;;
72201;SDS011;60105;54.956;73.412;2023-01-15T04:31:17;7.82;;;5.07;;
72201;SDS011;60105;54.956;73.412;2023-01-15T04:33:54;7.68;;;4.25;;
72201;SDS011;60105;54.956;73.412;2023-01-15T04:36:25;7.28;;;4.55;;
72201;SDS011;60105;54.956;73.412;2023-01-15T04:38:51;7.13;;;4.17;;
72201;SDS011;60105;54.956;73.412;2023-01-15T04:41:19;8.93;;;4.47;;
72201;SDS011;60105;54.956;73.412;2023-01-15T04:44:04;7.82;;;3.90;;
72201;SDS011;60105;54.956;73.412;2023-01-15T04:46:37;5.50;;;4.05;;
72201;SDS011;60105;54.956;73.412;2023-01-15T04:49:11;9.82;;;5.25;;
72201;SDS011;60105;54.956;73.412;2023-01-15T04:51:51;7.87;;;5.17;;
72201;SDS011;60105;54.956;73.412;2023-01-15T04:54:18;6.65;;;3.70;;
72201;SDS011;60105;54.956;73.412;2023-01-15T04:56:56;7.35;;;4.43;;
72201;SDS011;60105;54.956;73.412;2023-01-15T04:59:24;8.13;;;5.00;;
72201;SDS011;60105;54.956;73.412;2023-01-15T05:01:51;8.00;;;5.15;;
72201;SDS011;60105;54.956;73.412;2023-01-15T05:04:18;6.90;;;4.40;;
72201;SDS011;60105;54.956;73.412;2023-01-15T05:06:44;6.57;;;4.28;;
72201;SDS011;60105;54.956;73.412;2023-01-15T05:09:10;9.00;;;4.85;;
72201;SDS011;60105;54.956;73.412;2023-01-15T05:11:37;7.55;;;4.13;;
72201;SDS011;60105;54.956;73.412;2023-01-15T05:14:04;6.95;;;4.03;;
72201;SDS011;60105;54.956;73.412;2023-01-15T05:16:31;7.23;;;3.77;;
72201;SDS011;60105;54.956;73.412;2023-01-15T05:19:08;10.27;;;4.82;;
72201;SDS011;60105;54.956;73.412;2023-01-15T05:21:38;7.15;;;3.95;;
72201;SDS011;60105;54.956;73.412;2023-01-15T05:24:06;6.80;;;3.67;;
72201;SDS011;60105;54.956;73.412;2023-01-15T05:26:42;5.18;;;3.83;;
72201;SDS011;60105;54.956;73.412;2023-01-15T05:29:09;8.33;;;4.17;;
72201;SDS011;60105;54.956;73.412;2023-01-15T05:31:41;9.27;;;4.78;;
72201;SDS011;60105;54.956;73.412;2023-01-15T05:34:09;7.57;;;4.05;;
72201;SDS011;60105;54.956;73.412;2023-01-15T05:36:41;9.13;;;4.00;;
72201;SDS011;60105;54.956;73.412;2023-01-15T05:39:08;5.95;;;3.88;;
72201;SDS011;60105;54.956;73.412;2023-01-15T05:41:34;6.83;;;4.00;;
72201;SDS011;60105;54.956;73.412;2023-01-15T05:44:26;6.60;;;3.42;;
72201;SDS011;60105;54.956;73.412;2023-01-15T05:46:54;6.20;;;4.40;;
72201;SDS011;60105;54.956;73.412;2023-01-15T05:49:27;6.35;;;3.63;;
72201;SDS011;60105;54.956;73.412;2023-01-15T05:51:56;9.80;;;4.32;;
72201;SDS011;60105;54.956;73.412;2023-01-15T05:54:26;7.93;;;5.17;;
72201;SDS011;60105;54.956;73.412;2023-01-15T05:56:54;7.30;;;4.10;;
72201;SDS011;60105;54.956;73.412;2023-01-15T05:59:22;6.82;;;4.10;;
72201;SDS011;60105;54.956;73.412;2023-01-15T06:01:51;7.85;;;4.03;;
72201;SDS011;60105;54.956;73.412;2023-01-15T06:04:17;7.28;;;4.50;;
72201;SDS011;60105;54.956;73.412;2023-01-15T06:06:56;6.43;;;4.37;;
72201;SDS011;60105;54.956;73.412;2023-01-15T06:09:23;9.30;;;5.05;;
72201;SDS011;60105;54.956;73.412;2023-01-15T06:11:52;7.38;;;4.63;;
72201;SDS011;60105;54.956;73.412;2023-01-15T06:14:19;8.23;;;4.63;;
72201;SDS011;60105;54.956;73.412;2023-01-15T06:16:46;10.48;;;5.63;;
72201;SDS011;60105;54.956;73.412;2023-01-15T06:19:16;15.43;;;5.43;;
72201;SDS011;60105;54.956;73.412;2023-01-15T06:21:52;12.88;;;5.85;;
72201;SDS011;60105;54.956;73.412;2023-01-15T06:24:19;7.43;;;4.95;;
72201;SDS011;60105;54.956;73.412;2023-01-15T06:26:45;9.20;;;5.05;;
72201;SDS011;60105;54.956;73.412;2023-01-15T06:29:11;8.55;;;5.10;;
72201;SDS011;60105;54.956;73.412;2023-01-15T06:31:42;7.93;;;4.60;;
72201;SDS011;60105;54.956;73.412;2023-01-15T06:34:08;9.85;;;5.13;;
72201;SDS011;60105;54.956;73.412;2023-01-15T06:36:37;7.63;;;4.28;;
72201;SDS011;60105;54.956;73.412;2023-01-15T06:39:07;9.85;;;3.85;;
72201;SDS011;60105;54.956;73.412;2023-01-15T06:41:34;8.30;;;5.40;;
72201;SDS011;60105;54.956;73.412;2023-01-15T06:44:18;9.70;;;5.23;;
72201;SDS011;60105;54.956;73.412;2023-01-15T06:47:15;10.68;;;5.65;;
72201;SDS011;60105;54.956;73.412;2023-01-15T06:49:57;11.13;;;4.93;;
72201;SDS011;60105;54.956;73.412;2023-01-15T06:52:24;8.90;;;4.82;;
72201;SDS011;60105;54.956;73.412;2023-01-15T06:55:01;10.13;;;4.90;;
72201;SDS011;60105;54.956;73.412;2023-01-15T06:57:31;9.03;;;4.50;;
72201;SDS011;60105;54.956;73.412;2023-01-15T06:59:57;7.88;;;4.78;;
72201;SDS011;60105;54.956;73.412;2023-01-15T07:02:24;8.07;;;4.82;;
72201;SDS011;60105;54.956;73.412;2023-01-15T07:04:55;10.55;;;4.85;;
72201;SDS011;60105;54.956;73.412;2023-01-15T07:07:21;12.07;;;5.60;;
72201;SDS011;60105;54.956;73.412;2023-01-15T07:09:53;11.23;;;4.77;;
72201;SDS011;60105;54.956;73.412;2023-01-15T07:12:20;10.93;;;5.93;;
72201;SDS011;60105;54.956;73.412;2023-01-15T07:14:54;11.63;;;6.13;;
72201;SDS011;60105;54.956;73.412;2023-01-15T07:17:30;15.80;;;6.57;;
72201;SDS011;60105;54.956;73.412;2023-01-15T07:19:57;7.45;;;5.13;;
72201;SDS011;60105;54.956;73.412;2023-01-15T07:22:23;11.40;;;5.23;;
72201;SDS011;60105;54.956;73.412;2023-01-15T07:24:54;7.25;;;5.53;;
72201;SDS011;60105;54.956;73.412;2023-01-15T07:27:21;7.72;;;4.80;;
72201;SDS011;60105;54.956;73.412;2023-01-15T07:29:48;9.00;;;4.85;;
72201;SDS011;60105;54.956;73.412;2023-01-15T07:32:21;7.28;;;5.22;;
72201;SDS011;60105;54.956;73.412;2023-01-15T07:34:58;11.57;;;5.93;;
72201;SDS011;60105;54.956;73.412;2023-01-15T07:37:24;7.50;;;5.60;;
72201;SDS011;60105;54.956;73.412;2023-01-15T07:39:50;6.72;;;4.55;;
72201;SDS011;60105;54.956;73.412;2023-01-15T07:42:16;6.43;;;4.78;;
72201;SDS011;60105;54.956;73.412;2023-01-15T07:45:01;7.50;;;4.80;;
72201;SDS011;60105;54.956;73.412;2023-01-15T07:47:46;12.40;;;6.63;;
72201;SDS011;60105;54.956;73.412;2023-01-15T07:50:36;11.80;;;6.93;;
72201;SDS011;60105;54.956;73.412;2023-01-15T07:53:03;10.05;;;6.82;;
72201;SDS011;60105;54.956;73.412;2023-01-15T07:55:29;9.48;;;6.47;;
72201;SDS011;60105;54.956;73.412;2023-01-15T07:57:55;9.20;;;6.00;;
72201;SDS011;60105;54.956;73.412;2023-01-15T08:00:22;9.17;;;5.77;;
72201;SDS011;60105;54.956;73.412;2023-01-15T08:02:49;9.82;;;6.60;;
72201;SDS011;60105;54.956;73.412;2023-01-15T08:05:26;9.88;;;5.72;;
72201;SDS011;60105;54.956;73.412;2023-01-15T08:07:58;14.13;;;4.68;;
72201;SDS011;60105;54.956;73.412;2023-01-15T08:10:25;9.25;;;5.25;;
72201;SDS011;60105;54.956;73.412;2023-01-15T08:12:52;9.30;;;5.20;;
72201;SDS011;60105;54.956;73.412;2023-01-15T08:15:37;7.82;;;5.47;;
72201;SDS011;60105;54.956;73.412;2023-01-15T08:18:05;10.25;;;4.80;;
72201;SDS011;60105;54.956;73.412;2023-01-15T08:20:32;9.15;;;5.65;;
72201;SDS011;60105;54.956;73.412;2023-01-15T08:23:00;10.63;;;5.82;;
72201;SDS011;60105;54.956;73.412;2023-01-15T08:25:30;10.87;;;6.13;;
72201;SDS011;60105;54.956;73.412;2023-01-15T08:28:02;13.70;;;8.93;;
72201;SDS011;60105;54.956;73.412;2023-01-15T08:30:32;9.77;;;6.95;;
72201;SDS011;60105;54.956;73.412;2023-01-15T08:32:59;9.60;;;5.60;;
72201;SDS011;60105;54.956;73.412;2023-01-15T08:35:32;10.07;;;6.20;;
72201;SDS011;60105;54.956;73.412;2023-01-15T08:38:02;11.77;;;5.93;;
72201;SDS011;60105;54.956;73.412;2023-01-15T08:40:30;9.38;;;5.88;;
72201;SDS011;60105;54.956;73.412;2023-01-15T08:42:57;6.30;;;4.65;;
72201;SDS011;60105;54.956;73.412;2023-01-15T08:45:24;9.35;;;5.45;;
72201;SDS011;60105;54.956;73.412;2023-01-15T08:48:00;9.45;;;5.15;;
72201;SDS011;60105;54.956;73.412;2023-01-15T08:50:38;11.83;;;6.10;;
72201;SDS011;60105;54.956;73.412;2023-01-15T08:53:04;9.70;;;5.68;;
72201;SDS011;60105;54.956;73.412;2023-01-15T08:55:30;7.30;;;5.47;;
72201;SDS011;60105;54.956;73.412;2023-01-15T08:57:57;8.30;;;5.43;;
72201;SDS011;60105;54.956;73.412;2023-01-15T09:00:23;9.40;;;6.13;;
72201;SDS011;60105;54.956;73.412;2023-01-15T09:02:55;8.33;;;5.90;;
72201;SDS011;60105;54.956;73.412;2023-01-15T09:05:22;7.40;;;5.80;;
72201;SDS011;60105;54.956;73.412;2023-01-15T09:07:48;9.50;;;6.07;;
72201;SDS011;60105;54.956;73.412;2023-01-15T09:10:15;7.13;;;5.18;;
72201;SDS011;60105;54.956;73.412;2023-01-15T09:12:41;10.18;;;5.18;;
72201;SDS011;60105;54.956;73.412;2023-01-15T09:15:08;11.77;;;6.87;;
72201;SDS011;60105;54.956;73.412;2023-01-15T09:17:34;13.27;;;7.93;;
72201;SDS011;60105;54.956;73.412;2023-01-15T09:20:06;8.95;;;6.22;;
72201;SDS011;60105;54.956;73.412;2023-01-15T09:22:34;10.07;;;6.22;;
72201;SDS011;60105;54.956;73.412;2023-01-15T09:25:00;10.25;;;6.43;;
72201;SDS011;60105;54.956;73.412;2023-01-15T09:27:29;10.23;;;6.03;;
72201;SDS011;60105;54.956;73.412;2023-01-15T09:29:55;14.27;;;7.85;;
72201;SDS011;60105;54.956;73.412;2023-01-15T09:32:21;17.00;;;8.38;;
72201;SDS011;60105;54.956;73.412;2023-01-15T09:34:48;12.93;;;7.47;;
72201;SDS011;60105;54.956;73.412;2023-01-15T09:37:27;14.48;;;7.05;;
72201;SDS011;60105;54.956;73.412;2023-01-15T09:39:59;10.57;;;6.27;;
72201;SDS011;60105;54.956;73.412;2023-01-15T09:42:51;12.57;;;6.93;;
72201;SDS011;60105;54.956;73.412;2023-01-15T09:45:27;11.70;;;6.65;;
72201;SDS011;60105;54.956;73.412;2023-01-15T09:53:46;12.70;;;7.27;;
72201;SDS011;60105;54.956;73.412;2023-01-15T09:56:23;16.55;;;7.70;;
72201;SDS011;60105;54.956;73.412;2023-01-15T09:58:52;18.42;;;7.97;;
72201;SDS011;60105;54.956;73.412;2023-01-15T10:01:23;14.48;;;8.05;;
72201;SDS011;60105;54.956;73.412;2023-01-15T10:03:55;11.90;;;6.88;;
72201;SDS011;60105;54.956;73.412;2023-01-15T10:06:27;15.43;;;7.30;;
72201;SDS011;60105;54.956;73.412;2023-01-15T10:09:03;15.20;;;6.55;;
72201;SDS011;60105;54.956;73.412;2023-01-15T10:11:44;10.65;;;6.65;;
72201;SDS011;60105;54.956;73.412;2023-01-15T10:14:59;16.92;;;7.50;;
72201;SDS011;60105;54.956;73.412;2023-01-15T10:17:55;14.73;;;7.97;;
72201;SDS011;60105;54.956;73.412;2023-01-15T10:25:56;15.80;;;9.35;;
72201;SDS011;60105;54.956;73.412;2023-01-15T10:28:27;15.38;;;7.07;;
72201;SDS011;60105;54.956;73.412;2023-01-15T10:30:58;10.52;;;6.70;;
72201;SDS011;60105;54.956;73.412;2023-01-15T10:36:50;17.80;;;7.10;;
72201;SDS011;60105;54.956;73.412;2023-01-15T10:42:11;12.23;;;6.18;;
72201;SDS011;60105;54.956;73.412;2023-01-15T10:47:21;11.80;;;7.20;;
72201;SDS011;60105;54.956;73.412;2023-01-15T10:49:55;10.30;;;6.45;;
72201;SDS011;60105;54.956;73.412;2023-01-15T10:52:34;16.58;;;7.63;;
72201;SDS011;60105;54.956;73.412;2023-01-15T10:58:12;22.67;;;8.25;;
72201;SDS011;60105;54.956;73.412;2023-01-15T11:01:14;16.47;;;8.77;;
72201;SDS011;60105;54.956;73.412;2023-01-15T11:03:45;19.25;;;7.70;;
72201;SDS011;60105;54.956;73.412;2023-01-15T11:06:20;16.23;;;7.35;;
72201;SDS011;60105;54.956;73.412;2023-01-15T11:08:58;16.05;;;7.70;;
72201;SDS011;60105;54.956;73.412;2023-01-15T11:11:33;11.75;;;7.70;;
72201;SDS011;60105;54.956;73.412;2023-01-15T11:14:37;16.60;;;7.30;;
72201;SDS011;60105;54.956;73.412;2023-01-15T11:17:27;12.35;;;6.70;;
72201;SDS011;60105;54.956;73.412;2023-01-15T11:20:32;11.27;;;6.22;;
72201;SDS011;60105;54.956;73.412;2023-01-15T11:23:08;12.98;;;6.55;;
72201;SDS011;60105;54.956;73.412;2023-01-15T11:25:55;11.85;;;6.53;;
72201;SDS011;60105;54.956;73.412;2023-01-15T11:28:34;13.97;;;7.30;;
72201;SDS011;60105;54.956;73.412;2023-01-15T11:31:06;14.57;;;7.07;;
72201;SDS011;60105;54.956;73.412;2023-01-15T11:33:32;17.17;;;7.20;;
72201;SDS011;60105;54.956;73.412;2023-01-15T11:36:00;17.77;;;5.55;;
72201;SDS011;60105;54.956;73.412;2023-01-15T11:38:30;17.88;;;6.63;;
72201;SDS011;60105;54.956;73.412;2023-01-15T11:41:27;15.57;;;7.03;;
72201;SDS011;60105;54.956;73.412;2023-01-15T11:44:17;16.88;;;7.65;;
72201;SDS011;60105;54.956;73.412;2023-01-15T11:47:16;16.70;;;7.13;;
72201;SDS011;60105;54.956;73.412;2023-01-15T11:50:12;18.42;;;6.70;;
72201;SDS011;60105;54.956;73.412;2023-01-15T11:53:00;15.68;;;7.85;;
72201;SDS011;60105;54.956;73.412;2023-01-15T11:55:27;18.00;;;8.57;;
72201;SDS011;60105;54.956;73.412;2023-01-15T11:57:54;23.60;;;8.88;;
72201;SDS011;60105;54.956;73.412;2023-01-15T12:00:32;20.95;;;8.98;;
72201;SDS011;60105;54.956;73.412;2023-01-15T12:03:11;22.70;;;9.55;;
72201;SDS011;60105;54.956;73.412;2023-01-15T12:05:52;21.85;;;7.80;;
72201;SDS011;60105;54.956;73.412;2023-01-15T12:08:50;21.03;;;8.43;;
72201;SDS011;60105;54.956;73.412;2023-01-15T12:11:49;18.52;;;7.25;;
72201;SDS011;60105;54.956;73.412;2023-01-15T12:31:40;16.40;;;5.78;;
72201;SDS011;60105;54.956;73.412;2023-01-15T12:37:04;10.30;;;5.50;;
72201;SDS011;60105;54.956;73.412;2023-01-15T12:39:44;13.13;;;5.38;;
72201;SDS011;60105;54.956;73.412;2023-01-15T12:42:18;11.73;;;5.53;;
72201;SDS011;60105;54.956;73.412;2023-01-15T12:45:19;11.20;;;5.68;;
72201;SDS011;60105;54.956;73.412;2023-01-15T12:47:51;10.70;;;5.65;;
72201;SDS011;60105;54.956;73.412;2023-01-15T12:55:57;13.95;;;6.32;;
72201;SDS011;60105;54.956;73.412;2023-01-15T13:06:46;20.25;;;8.05;;
72201;SDS011;60105;54.956;73.412;2023-01-15T13:11:48;17.80;;;8.23;;
72201;SDS011;60105;54.956;73.412;2023-01-15T13:14:14;18.05;;;8.35;;
72201;SDS011;60105;54.956;73.412;2023-01-15T13:19:31;16.98;;;6.68;;
72201;SDS011;60105;54.956;73.412;2023-01-15T13:22:09;15.25;;;6.75;;
72201;SDS011;60105;54.956;73.412;2023-01-15T13:33:24;20.23;;;8.93;;
72201;SDS011;60105;54.956;73.412;2023-01-15T13:36:07;17.33;;;9.10;;
72201;SDS011;60105;54.956;73.412;2023-01-15T13:38:51;17.85;;;8.35;;
72201;SDS011;60105;54.956;73.412;2023-01-15T13:41:26;21.17;;;8.93;;
72201;SDS011;60105;54.956;73.412;2023-01-15T13:44:26;16.50;;;7.53;;
72201;SDS011;60105;54.956;73.412;2023-01-15T13:47:04;13.77;;;7.60;;
72201;SDS011;60105;54.956;73.412;2023-01-15T13:49:34;15.23;;;7.57;;
72201;SDS011;60105;54.956;73.412;2023-01-15T13:52:17;13.90;;;6.90;;
72201;SDS011;60105;54.956;73.412;2023-01-15T13:55:10;14.95;;;6.97;;
72201;SDS011;60105;54.956;73.412;2023-01-15T13:57:48;19.00;;;9.30;;
72201;SDS011;60105;54.956;73.412;2023-01-15T14:00:27;22.90;;;10.32;;
72201;SDS011;60105;54.956;73.412;2023-01-15T14:03:26;23.50;;;11.25;;
72201;SDS011;60105;54.956;73.412;2023-01-15T14:05:58;20.48;;;10.57;;
72201;SDS011;60105;54.956;73.412;2023-01-15T14:08:43;19.40;;;10.75;;
72201;SDS011;60105;54.956;73.412;2023-01-15T14:14:13;24.35;;;11.13;;
72201;SDS011;60105;54.956;73.412;2023-01-15T14:30:41;33.10;;;14.15;;
72201;SDS011;60105;54.956;73.412;2023-01-15T14:36:19;39.30;;;16.20;;
72201;SDS011;60105;54.956;73.412;2023-01-15T14:38:54;43.10;;;16.47;;
72201;SDS011;60105;54.956;73.412;2023-01-15T14:41:35;38.05;;;17.05;;
72201;SDS011;60105;54.956;73.412;2023-01-15T14:44:28;30.02;;;15.32;;
72201;SDS011;60105;54.956;73.412;2023-01-15T14:47:02;39.55;;;16.73;;
72201;SDS011;60105;54.956;73.412;2023-01-15T14:49:44;51.58;;;18.52;;
72201;SDS011;60105;54.956;73.412;2023-01-15T14:52:19;40.70;;;17.37;;
72201;SDS011;60105;54.956;73.412;2023-01-15T14:54:58;35.22;;;15.85;;
72201;SDS011;60105;54.956;73.412;2023-01-15T14:57:31;51.50;;;18.30;;
72201;SDS011;60105;54.956;73.412;2023-01-15T14:59:59;42.83;;;18.17;;
72201;SDS011;60105;54.956;73.412;2023-01-15T15:02:38;45.75;;;18.25;;
72201;SDS011;60105;54.956;73.412;2023-01-15T15:05:15;46.87;;;19.03;;
72201;SDS011;60105;54.956;73.412;2023-01-15T15:07:43;41.65;;;18.17;;
72201;SDS011;60105;54.956;73.412;2023-01-15T15:13:34;35.17;;;15.98;;
72201;SDS011;60105;54.956;73.412;2023-01-15T15:18:52;29.63;;;13.93;;
72201;SDS011;60105;54.956;73.412;2023-01-15T15:21:30;28.80;;;13.95;;
72201;SDS011;60105;54.956;73.412;2023-01-15T15:24:04;32.85;;;14.10;;
72201;SDS011;60105;54.956;73.412;2023-01-15T15:26:37;22.88;;;11.90;;
72201;SDS011;60105;54.956;73.412;2023-01-15T15:31:34;24.70;;;12.90;;
72201;SDS011;60105;54.956;73.412;2023-01-15T15:34:21;31.88;;;14.45;;
72201;SDS011;60105;54.956;73.412;2023-01-15T15:36:59;31.95;;;14.90;;
72201;SDS011;60105;54.956;73.412;2023-01-15T15:42:31;35.33;;;15.00;;
72201;SDS011;60105;54.956;73.412;2023-01-15T15:45:23;33.77;;;13.23;;
72201;SDS011;60105;54.956;73.412;2023-01-15T15:51:28;23.17;;;12.10;;
72201;SDS011;60105;54.956;73.412;2023-01-15T15:56:48;32.05;;;11.13;;
72201;SDS011;60105;54.956;73.412;2023-01-15T15:59:28;32.03;;;12.33;;
72201;SDS011;60105;54.956;73.412;2023-01-15T16:02:06;26.85;;;12.20;;
72201;SDS011;60105;54.956;73.412;2023-01-15T16:04:44;32.28;;;14.35;;
72201;SDS011;60105;54.956;73.412;2023-01-15T16:07:12;28.05;;;13.52;;
72201;SDS011;60105;54.956;73.412;2023-01-15T16:09:40;31.02;;;12.07;;
72201;SDS011;60105;54.956;73.412;2023-01-15T16:12:14;27.07;;;13.23;;
72201;SDS011;60105;54.956;73.412;2023-01-15T16:14:42;30.98;;;12.80;;
72201;SDS011;60105;54.956;73.412;2023-01-15T16:17:10;29.13;;;12.10;;
72201;SDS011;60105;54.956;73.412;2023-01-15T16:19:37;27.23;;;13.80;;
72201;SDS011;60105;54.956;73.412;2023-01-15T16:22:15;22.65;;;11.98;;
72201;SDS011;60105;54.956;73.412;2023-01-15T16:24:51;29.93;;;12.60;;
72201;SDS011;60105;54.956;73.412;2023-01-15T16:27:19;37.92;;;14.15;;
72201;SDS011;60105;54.956;73.412;2023-01-15T16:29:47;26.58;;;12.82;;
72201;SDS011;60105;54.956;73.412;2023-01-15T16:32:28;23.80;;;11.13;;
72201;SDS011;60105;54.956;73.412;2023-01-15T16:34:58;29.58;;;12.18;;
72201;SDS011;60105;54.956;73.412;2023-01-15T16:37:56;26.23;;;11.13;;
72201;SDS011;60105;54.956;73.412;2023-01-15T16:40:26;25.35;;;11.60;;
72201;SDS011;60105;54.956;73.412;2023-01-15T16:45:31;23.85;;;10.15;;
72201;SDS011;60105;54.956;73.412;2023-01-15T16:50:42;21.43;;;7.90;;
72201;SDS011;60105;54.956;73.412;2023-01-15T16:53:41;21.90;;;8.18;;
72201;SDS011;60105;54.956;73.412;2023-01-15T16:56:01;15.25;;;7.22;;
72201;SDS011;60105;54.956;73.412;2023-01-15T16:58:31;18.70;;;7.45;;
72201;SDS011;60105;54.956;73.412;2023-01-15T17:01:22;14.32;;;6.65;;
72201;SDS011;60105;54.956;73.412;2023-01-15T17:03:55;18.27;;;6.27;;
72201;SDS011;60105;54.956;73.412;2023-01-15T17:06:24;17.30;;;7.25;;
72201;SDS011;60105;54.956;73.412;2023-01-15T17:08:56;14.10;;;6.88;;
72201;SDS011;60105;54.956;73.412;2023-01-15T17:11:27;11.10;;;5.90;;
72201;SDS011;60105;54.956;73.412;2023-01-15T17:14:08;19.70;;;8.00;;
72201;SDS011;60105;54.956;73.412;2023-01-15T17:16:49;17.43;;;6.80;;
72201;SDS011;60105;54.956;73.412;2023-01-15T17:19:47;16.52;;;6.68;;
72201;SDS011;60105;54.956;73.412;2023-01-15T17:22:30;12.07;;;7.43;;
72201;SDS011;60105;54.956;73.412;2023-01-15T17:25:01;19.40;;;7.75;;
72201;SDS011;60105;54.956;73.412;2023-01-15T17:27:45;17.50;;;7.40;;
72201;SDS011;60105;54.956;73.412;2023-01-15T17:30:11;15.40;;;7.77;;
72201;SDS011;60105;54.956;73.412;2023-01-15T17:32:38;22.88;;;7.70;;